1875 NOT_NAMED (1875011S13061)


IBTrACS version v04r00. Visit IBTrACS website for data access.
Please direct all questions to the IBTrACS Q and A forum

Storm track - Intensity - Wind Radii - Intensity Data - Source Data - All data

Summary Information

Storm ID 1875011S13061
Start Jan 11 06Z
End Jan 18 06Z
ATCF IDs
Track status Best track data.

Storm track plot

Map of storm track

Intensity plots

No Intensity information for this storm


Radial wind information

No radial wind information for this storm


Position and Intensity Table

BASIN ISO_TIME_________ NATURE LAT LON
degrees north degrees east
SI 1875-01-11 06:00:00 NR -13.00 60.90
SI 09:00:00 NR -13.10 60.76
SI 12:00:00 NR -13.20 60.62
SI 15:00:00 NR -13.31 60.48
SI 18:00:00 NR -13.41 60.35
SI 21:00:00 NR -13.52 60.21
SI 1875-01-12 00:00:00 NR -13.63 60.07
SI 03:00:00 NR -13.74 59.94
SI 06:00:00 NR -13.85 59.80
SI 09:00:00 NR -13.96 59.67
SI 12:00:00 NR -14.07 59.54
SI 15:00:00 NR -14.19 59.41
SI 18:00:00 NR -14.30 59.27
SI 21:00:00 NR -14.42 59.12
SI 1875-01-13 00:00:00 NR -14.53 58.97
SI 03:00:00 NR -14.65 58.83
SI 06:00:00 NR -14.75 58.70
SI 09:00:00 NR -14.84 58.60
SI 12:00:00 NR -14.92 58.52
SI 15:00:00 NR -15.00 58.44
SI 18:00:00 NR -15.07 58.37
SI 21:00:00 NR -15.15 58.29
SI 1875-01-14 00:00:00 NR -15.24 58.21
SI 03:00:00 NR -15.32 58.13
SI 06:00:00 NR -15.40 58.05
SI 09:00:00 NR -15.48 57.97
SI 12:00:00 NR -15.55 57.89
SI 15:00:00 NR -15.62 57.81
SI 18:00:00 NR -15.70 57.72
SI 21:00:00 NR -15.76 57.65
SI 1875-01-15 00:00:00 NR -15.83 57.57
SI 03:00:00 NR -15.91 57.49
SI 06:00:00 NR -16.00 57.40
SI 09:00:00 NR -16.11 57.30
SI 12:00:00 NR -16.24 57.19
SI 15:00:00 NR -16.37 57.08
SI 18:00:00 NR -16.50 56.96
SI 21:00:00 NR -16.63 56.86
SI 1875-01-16 00:00:00 NR -16.67 56.82
SI 03:00:00 NR -16.68 56.80
SI 06:00:00 NR -16.64 56.82
SI 09:00:00 NR -16.54 56.88
SI 12:00:00 NR -16.69 56.74
SI 15:00:00 NR -16.85 56.60
SI 18:00:00 NR -17.01 56.45
SI 21:00:00 NR -17.17 56.30
SI 1875-01-17 00:00:00 NR -17.32 56.16
SI 03:00:00 NR -17.47 56.02
SI 06:00:00 NR -17.60 55.90
SI 09:00:00 NR -17.71 55.79
SI 12:00:00 NR -17.81 55.69
SI 15:00:00 NR -17.90 55.61
SI 18:00:00 NR -17.97 55.54
SI 21:00:00 NR -18.04 55.47
SI 1875-01-18 00:00:00 NR -18.10 55.41
SI 03:00:00 NR -18.15 55.35
SI 06:00:00 NR -18.20 55.30

Source Information

Agency Information
USA
TOKYO
CMA
HKO
NEWDELHI
REUNION WMO-Best-Tracks.txt:Line=1055:xxxx875153
BOM
NADI
WELLINGTON
DS824
TD9636 cons_worldwide_trop_cyclone_18710101-19891231-005:Line=1450
TD9635
NEUMANN
MLC

All available IBTrACS Data

SEASON BASIN SUBBASIN ISO_TIME_________ NATURE LAT LON WMO AGENCY DIST2LAND LANDFALL IFLAG USA SSHS REUNION LAT REUNION LON REUNION TYPE REUNION TNUM TD9636 LAT TD9636 LON TD9636 STAGE STORM SPEED STORM DIR
Year degrees north degrees east km km 1 degrees north degrees east 1 degrees north degrees east kts degrees
1875 SI MM 1875-01-11 06:00:00 NR -13.00 60.90 reunion 864 850 _____O____O___ -1 -12.70 61.20 99 9.90 -13.30 60.60 7 3 234
1875 SI MM 09:00:00 NR -13.10 60.76 850 831 _____P____P___ -1 -12.75 61.13 99 -13.45 60.39 7 3 233
1875 SI MM 12:00:00 NR -13.20 60.62 831 817 _____P____P___ -1 -12.80 61.06 99 -13.61 60.19 7 3 233
1875 SI MM 15:00:00 NR -13.31 60.48 817 802 _____P____P___ -1 -12.86 60.98 99 -13.75 59.99 7 3 232
1875 SI MM 18:00:00 NR -13.41 60.35 799 785 _____P____O___ -1 -12.92 60.89 99 -13.90 59.80 7 3 232
1875 SI MM 21:00:00 NR -13.52 60.21 785 770 _____P____P___ -1 -13.00 60.79 99 -14.04 59.62 7 3 231
1875 SI MM 1875-01-12 00:00:00 NR -13.63 60.07 770 753 _____P____P___ -1 -13.08 60.68 99 -14.17 59.46 7 3 231
1875 SI MM 03:00:00 NR -13.74 59.94 753 739 _____P____P___ -1 -13.18 60.55 99 -14.29 59.32 7 3 230
1875 SI MM 06:00:00 NR -13.85 59.80 reunion 739 714 _____O____O___ -1 -13.30 60.40 99 9.90 -14.40 59.20 7 3 229
1875 SI MM 09:00:00 NR -13.96 59.67 714 698 _____P____P___ -1 -13.43 60.23 99 -14.49 59.11 7 3 229
1875 SI MM 12:00:00 NR -14.07 59.54 698 684 _____P____P___ -1 -13.58 60.04 99 -14.56 59.03 7 3 229
1875 SI MM 15:00:00 NR -14.19 59.41 684 670 _____P____P___ -1 -13.74 59.84 99 -14.63 58.97 7 3 229
1875 SI MM 18:00:00 NR -14.30 59.27 670 654 _____P____O___ -1 -13.90 59.64 99 -14.70 58.90 7 4 230
1875 SI MM 21:00:00 NR -14.42 59.12 654 641 _____P____P___ -1 -14.06 59.43 99 -14.78 58.80 7 4 231
1875 SI MM 1875-01-13 00:00:00 NR -14.53 58.97 641 626 _____P____P___ -1 -14.22 59.24 99 -14.85 58.70 7 4 231
1875 SI MM 03:00:00 NR -14.65 58.83 626 613 _____P____P___ -1 -14.37 59.06 99 -14.93 58.60 7 3 231
1875 SI MM 06:00:00 NR -14.75 58.70 reunion 613 600 _____O____O___ -1 -14.50 58.90 99 9.90 -15.00 58.50 7 3 228
1875 SI MM 09:00:00 NR -14.84 58.60 600 588 _____P____P___ -1 -14.60 58.78 99 -15.07 58.42 7 2 226
1875 SI MM 12:00:00 NR -14.92 58.52 588 575 _____P____P___ -1 -14.69 58.69 99 -15.14 58.35 7 2 224
1875 SI MM 15:00:00 NR -15.00 58.44 575 564 _____P____P___ -1 -14.77 58.61 99 -15.22 58.28 7 2 222
1875 SI MM 18:00:00 NR -15.07 58.37 564 563 _____P____O___ -1 -14.84 58.54 99 -15.30 58.20 7 2 223
1875 SI MM 21:00:00 NR -15.15 58.29 551 550 _____P____P___ -1 -14.91 58.48 99 -15.40 58.10 7 2 223
1875 SI MM 1875-01-14 00:00:00 NR -15.24 58.21 550 538 _____P____P___ -1 -14.97 58.42 99 -15.50 58.00 7 2 223
1875 SI MM 03:00:00 NR -15.32 58.13 538 527 _____P____P___ -1 -15.04 58.36 99 -15.60 57.90 7 2 223
1875 SI MM 06:00:00 NR -15.40 58.05 reunion 527 515 _____O____O___ -1 -15.10 58.30 99 9.90 -15.70 57.80 7 2 225
1875 SI MM 09:00:00 NR -15.48 57.97 515 515 _____P____P___ -1 -15.17 58.22 99 -15.78 57.72 7 2 226
1875 SI MM 12:00:00 NR -15.55 57.89 503 503 _____P____P___ -1 -15.25 58.13 99 -15.86 57.64 7 2 227
1875 SI MM 15:00:00 NR -15.62 57.81 503 492 _____P____P___ -1 -15.32 58.04 99 -15.93 57.57 7 2 226
1875 SI MM 18:00:00 NR -15.70 57.72 492 481 _____P____O___ -1 -15.39 57.95 99 -16.00 57.50 7 2 227
1875 SI MM 21:00:00 NR -15.76 57.65 481 481 _____P____P___ -1 -15.47 57.86 99 -16.06 57.44 7 2 228
1875 SI MM 1875-01-15 00:00:00 NR -15.83 57.57 481 469 _____P____P___ -1 -15.54 57.77 99 -16.12 57.37 7 2 227
1875 SI MM 03:00:00 NR -15.91 57.49 469 458 _____P____P___ -1 -15.62 57.68 99 -16.20 57.30 7 2 224
1875 SI MM 06:00:00 NR -16.00 57.40 reunion 458 447 _____O____O___ -1 -15.70 57.60 99 9.90 -16.30 57.20 7 3 222
1875 SI MM 09:00:00 NR -16.11 57.30 448 436 _____P____P___ -1 -15.77 57.53 99 -16.45 57.07 7 3 220
1875 SI MM 12:00:00 NR -16.24 57.19 437 416 _____P____P___ -1 -15.85 57.46 99 -16.63 56.92 7 3 220
1875 SI MM 15:00:00 NR -16.37 57.08 416 406 _____P____P___ -1 -15.92 57.40 99 -16.82 56.76 7 3 219
1875 SI MM 18:00:00 NR -16.50 56.96 406 396 _____P____O___ -1 -16.00 57.33 99 -17.00 56.60 7 3 219
1875 SI MM 21:00:00 NR -16.63 56.86 396 387 _____P____P___ -1 -16.09 57.26 99 -17.17 56.46 7 2 220
1875 SI MM 1875-01-16 00:00:00 NR -16.67 56.82 387 387 _____P____P___ -1 -16.18 57.18 99 -17.32 56.33 7 1 231
1875 SI MM 03:00:00 NR -16.68 56.80 387 387 _____P____P___ -1 -16.29 57.10 99 -17.46 56.21 7 0 38
1875 SI MM 06:00:00 NR -16.64 56.82 reunion 398 396 _____O____O___ -1 -16.40 57.00 99 9.90 -17.60 56.10 7 2 27
1875 SI MM 09:00:00 NR -16.54 56.88 407 387 _____P________ -1 -16.54 56.88 99 7 1 240
1875 SI MM 12:00:00 NR -16.69 56.74 389 378 _____P________ -1 -16.69 56.74 99 7 4 221
1875 SI MM 15:00:00 NR -16.85 56.60 381 362 _____P________ -1 -16.85 56.60 99 7 4 221
1875 SI MM 18:00:00 NR -17.01 56.45 362 348 _____P________ -1 -17.01 56.45 99 4 221
1875 SI MM 21:00:00 NR -17.17 56.30 348 341 _____P________ -1 -17.17 56.30 99 4 221
1875 SI MM 1875-01-17 00:00:00 NR -17.32 56.16 341 330 _____P________ -1 -17.32 56.16 99 4 222
1875 SI MM 03:00:00 NR -17.47 56.02 330 326 _____P________ -1 -17.47 56.02 99 4 222
1875 SI MM 06:00:00 NR -17.60 55.90 reunion 326 322 _____O________ -1 -17.60 55.90 99 9.90 3 222
1875 SI MM 09:00:00 NR -17.71 55.79 322 313 _____P________ -1 -17.71 55.79 99 3 222
1875 SI MM 12:00:00 NR -17.81 55.69 319 310 _____P________ -1 -17.81 55.69 99 3 223
1875 SI MM 15:00:00 NR -17.90 55.61 316 308 _____P________ -1 -17.90 55.61 99 2 223
1875 SI MM 18:00:00 NR -17.97 55.54 315 315 _____P________ -1 -17.97 55.54 99 2 223
1875 SI MM 21:00:00 NR -18.04 55.47 315 306 _____P________ -1 -18.04 55.47 99 2 225
1875 SI MM 1875-01-18 00:00:00 NR -18.10 55.41 314 314 _____P________ -1 -18.10 55.41 99 2 225
1875 SI MM 03:00:00 NR -18.15 55.35 314 306 _____P________ -1 -18.15 55.35 99 1 225
1875 SI MM 06:00:00 NR -18.20 55.30 reunion 313 _____O________ -1 -18.20 55.30 99 9.90 1 230